Leonardo Rossi

Chefscout - Palermo
8 Jan 2030
Dienstag
Verarbeitung

Persönlichkeit

Anpassungsfähigkeit (1) Ehrgeiz (15) Kontroverse (14) Loyalität (1) Druck (18) Professionalität (8) Fairness (4) Temperament (9)

Profil

Trainerstil Demokratisch
Lizenz Kontinentale Pro
Entschlossenheit 13
Menschenführung 7
Motivation 6
Disziplin 8
Arbeitszufriedenheit
72%
Ermüdung
0%
Rolle Chefscout
Gehalt 43.5K p/W
Vertrag 14.03.2030

Leistung

Verhalten Gut
Trainingseffektivität
33%
Spielerentwicklung
50%
Verletzungsprävention
25%
Taktische Umsetzung
65%

Letzte Ereignisse

Vertragsverhandlung begonnen jetzt
Nahm an einer Scouting-Besprechung teil jetzt
Empfahl ein Transferziel jetzt
Empfahl ein Transferziel jetzt
Nahm an einer Scouting-Besprechung teil jetzt
Empfahl ein Transferziel jetzt
Vertragsverhandlung begonnen 7T her
Vertragsverhandlung begonnen 7T her

Aktuell beobachtet

157
Spieler Verein Status Fähigkeit Vertrauen Beobachtet Zuletzt beobachtet Letzte Stimme
Nejc Viher NK Maribor Aktiv 129 / 137 40% 2 03.01.2030 -
Alessio Baralla Lecce Aktiv 113 / 123 40% 1 03.01.2030 -
Djibril Diallo Sheffield United Aktiv 94 / 111 40% 1 03.01.2030 -
Nicholas Durante Campobasso Aktiv 98 / 103 40% 3 01.01.2030 -
Pier Luigi Simonetti Benevento Aktiv 119 / 128 86% 1 01.01.2030 Befürworten
Danilo Treffiletti Derby County Aktiv 101 / 100 40% 1 01.01.2030 -
Fabio Ronchetti Córdoba Aktiv 97 / 101 40% 1 01.01.2030 -
Reggie Walsh Chelsea Aktiv 129 / 139 40% 1 21.08.2029 -
Federico Matarán Fiorentina Aktiv 118 / 117 40% 1 21.08.2029 -
Davide De Fraia Latina Aktiv 106 / 113 40% 10 20.08.2029 -
Yuel Helafu Sunderland Aktiv 112 / 120 40% 1 20.08.2029 -
Filip Reshane Sarpsborg 08 Aktiv 101 / 97 40% 5 19.08.2029 -
Elián Báez Bari Aktiv 93 / 110 40% 1 19.08.2029 -
Miguel Agámez Junior Aktiv 111 / 113 40% 1 19.08.2029 -
Peter Ademola Bendel Insurance Aktiv 95 / 102 40% 3 16.08.2029 -
Celías Ingenthron River Plate Aktiv 129 / 131 40% 8 16.08.2029 -
Giacomo Sandrolini Carpi Aktiv 100 / 121 40% 9 15.08.2029 -
Jacob Hall Latina Aktiv 97 / 105 40% 6 11.08.2029 -
Juan David Aponzá America de Cali Aktiv 104 / 90 40% 3 11.08.2029 -
Davinchi Valencia Aktiv 129 / 138 40% 3 10.08.2029 -
Tobías Lucero River Plate Aktiv 98 / 107 40% 1 10.08.2029 -
Louis Page Hull City Aktiv 139 / 141 40% 11 09.08.2029 -
Samuele Pirola Mantova Aktiv 111 / 122 40% 3 09.08.2029 -
Miguel Figueiredo Benfica Aktiv 130 / 141 40% 10 08.08.2029 -
Nicolò Moranduzzo Monza Aktiv 103 / 100 40% 2 08.08.2029 -
Matthew Crowther Colchester United Aktiv 105 / 103 40% 10 06.08.2029 -
Matías Calegari Parma Aktiv 113 / 107 83% 1 06.08.2029 Befürworten
Bernardo Lima Porto Aktiv 124 / 120 40% 9 05.08.2029 -
Kevin Mazzeo Renate Aktiv 98 / 98 40% 5 05.08.2029 -
Jonathan Whiteley Harrogate Town Aktiv 98 / 102 40% 3 05.08.2029 -
Mousa Mignolet Vitesse Aktiv 112 / 122 40% 6 04.08.2029 -
Kaden Braithwaite Fleetwood Town Aktiv 112 / 121 40% 6 01.08.2029 -
Saba Kharebashvili Besiktas Aktiv 138 / 163 40% 8 31.07.2029 -
Harry Rodda AFC Wimbledon Aktiv 98 / 104 40% 2 31.07.2029 -
Emile Dortley Platinum Stars Aktiv 93 / 88 40% 2 31.07.2029 -
Mohamed Bendary ENPPI Aktiv 105 / 96 40% 6 29.07.2029 -
Alex Cardozo Oxford United Aktiv 96 / 102 40% 3 29.07.2029 -
Román Lozada Mineros de Guayana Aktiv 96 / 107 40% 3 28.07.2029 -
Daniel Costa Sporting CP Aktiv 112 / 120 40% 2 27.07.2029 -
Alessandro Perrotti BATE Aktiv 87 / 92 40% 10 24.07.2029 -
Hervé Berger FC Metz Aktiv 106 / 118 40% 1 24.07.2029 -
Lewi Richards Walsall Aktiv 106 / 108 40% 7 22.07.2029 -
Manuel Verre Pro Patria Aktiv 108 / 111 40% 2 14.07.2029 -
Ho Sy Duc Pribram Aktiv 98 / 89 40% 5 02.07.2029 -
Ronnie Harvey Colchester United Aktiv 101 / 106 40% 4 30.06.2029 -
Alfie Cresswell Chesterfield Aktiv 113 / 115 40% 5 21.06.2029 -
Djibril Coulibaly Paris FC Aktiv 124 / 122 40% 3 18.06.2029 -
Daniel Banjaqui Benfica Aktiv 136 / 142 40% 10 16.06.2029 -
Alberto Di Stefano Carrarese Aktiv 98 / 100 40% 1 16.06.2029 -
Jacob Watson Doncaster Rovers Aktiv 92 / 105 40% 1 14.06.2029 -
Adem Avdić TSC Aktiv 117 / 124 40% 3 06.06.2029 -
Trey Nyoni Liverpool Aktiv 150 / 143 40% 3 31.01.2029 -
Rhys Chadwick Peterborough United Aktiv 104 / 112 40% 4 31.01.2029 -
Rafael Mota Sporting CP Aktiv 117 / 134 40% 8 28.01.2029 -
Emiliano Bértoli Patronato Aktiv 90 / 106 40% 5 27.01.2029 -
Federico Nardin Alcione Milano Aktiv 103 / 108 40% 7 25.01.2029 -
Tyson Pearce St. Louis CITY SC Aktiv 96 / 99 40% 6 18.01.2029 -
Tobiáš Pališčák AS Trencin Aktiv 107 / 105 40% 1 17.01.2029 -
Jovan Vojnović Cukaricki Aktiv 99 / 105 40% 2 16.01.2029 -
Rafael Quintas Benfica Aktiv 111 / 124 40% 1 14.01.2029 -
Harbor Miller LA Galaxy Aktiv 101 / 109 40% 2 11.01.2029 -
Colin Guske Orlando City Aktiv 93 / 90 40% 2 10.01.2029 -
Ivan Lykholit Torreense Aktiv 97 / 99 40% 1 08.01.2029 -
Jorthy Mokio Ajax Aktiv 138 / 153 40% 3 01.01.2029 -
Matías Magdaleno Estudiantes Aktiv 110 / 108 40% 1 31.08.2028 -
Jude Terry Los Angeles Football Club Aktiv 103 / 105 40% 2 28.08.2028 -
Germán Barbas Nacional Aktiv 110 / 130 40% 1 28.08.2028 -
Felipe Obradovich Gimnasia La Plata Aktiv 108 / 117 40% 1 28.08.2028 -
Gideon Manaseh Ikorodu City Aktiv 90 / 99 40% 2 27.08.2028 -
Lamberto Peletti Willem II Aktiv 96 / 97 40% 1 27.08.2028 -
Ayyoub Bouaddi West Bromwich Albion Aktiv 155 / 154 40% 2 23.08.2028 -
Braian Cabral Madryn Aktiv 92 / 86 40% 1 23.08.2028 -
Alessandro Tosti Diosgyor Aktiv 99 / 89 40% 1 21.08.2028 -
Sascha Britschgi Udinese Aktiv 130 / 137 40% 10 19.08.2028 -
Noahkai Banks VfB Stuttgart Aktiv 148 / 150 40% 2 16.08.2028 -
Honest Ahanor Udinese Aktiv 139 / 153 40% 5 15.08.2028 -
Branimir Mlačić Udinese Aktiv 132 / 129 40% 1 12.08.2028 -
Agustín Medina River Plate Aktiv 116 / 113 40% 5 11.08.2028 -
Patrice Čović Werder Bremen Aktiv 120 / 134 40% 1 10.08.2028 -
Darryl Bakola Sassuolo Aktiv 119 / 124 40% 1 10.08.2028 Mehr Infos nötig
Filipe Sousa Porto Aktiv 107 / 104 40% 2 08.08.2028 -
Ethan Apkakou Cambuur Aktiv 110 / 118 40% 1 08.08.2028 -
Rodrigo Gonçalves Porto Aktiv 103 / 120 40% 3 07.08.2028 -
Joe Emery Salford City Aktiv 98 / 97 40% 4 31.07.2028 -
Kai Andrews Leeds United Aktiv 118 / 135 40% 1 28.07.2028 -
Josh Stephenson Bristol City Aktiv 119 / 117 40% 1 26.07.2028 -
Jack Shorrock Port Vale Aktiv 103 / 106 40% 5 25.07.2028 -
Callum Tripp Milton Keynes Dons Aktiv 94 / 109 40% 4 24.07.2028 -
Yoan Pereira Porto Aktiv 99 / 100 40% 2 20.07.2028 -
João Brito Porto Aktiv 106 / 122 40% 2 19.07.2028 -
Aymeris Ligeon Vizela Aktiv 95 / 106 40% 2 10.07.2028 -
Zahir Ibarra Eibar Aktiv 112 / 107 40% 4 03.07.2028 -
Lorenzo Crisetig Padova Aktiv 122 / 119 79% 1 03.07.2028 Befürworten
Frederik Damkjer Viborg Aktiv 99 / 99 40% 1 29.06.2028 -
Konta Ismaily Aktiv 106 / 106 40% 1 25.06.2028 -
Mattia Mannini Juve Stabia Aktiv 119 / 129 40% 4 19.06.2028 -
Juan Manuel Villalba Estudiantes Aktiv 114 / 121 40% 3 31.01.2028 -
Dwight McNeil Crystal Palace Aktiv 148 / 140 40% 2 26.01.2028 -
Cheick Doucouré Crystal Palace Aktiv 149 / 148 40% 1 26.01.2028 -
Sander Berge Sheffield United Aktiv 153 / 153 40% 1 26.01.2028 -
Jens Odgaard Bologna Aktiv 150 / 146 40% 3 25.01.2028 -
Mohamed Belloumi Hull City Aktiv 145 / 135 40% 2 25.01.2028 -
Nadir Zortea Bologna Aktiv 138 / 151 40% 2 24.01.2028 -
Richarlison Stoke City Aktiv 146 / 141 40% 3 24.01.2028 -
David Møller Wolfe Wolverhampton Aktiv 147 / 146 40% 2 23.01.2028 -
Saša Lukić Ipswich Town Aktiv 149 / 143 40% 2 22.01.2028 -
Kenny Tete Fulham Aktiv 147 / 138 40% 1 20.01.2028 -
Gabriel Gudmundsson Leeds United Aktiv 150 / 141 40% 1 17.01.2028 -
Juan Miranda Bologna Aktiv 151 / 138 40% 1 17.01.2028 -
Eddie Nketiah Crystal Palace Aktiv 148 / 141 40% 1 13.01.2028 -
Martin Baturina Como Aktiv 141 / 156 40% 1 13.01.2028 -
Armand Laurienté Sassuolo Aktiv 147 / 144 40% 1 12.01.2028 -
Jayden Bogle Leeds United Aktiv 147 / 135 40% 1 12.01.2028 -
Juan Giménez Rosario Central Aktiv 115 / 123 40% 3 05.01.2028 -
Ulises Giménez River Plate Aktiv 109 / 116 40% 1 28.08.2027 -
Alexis Fretes Libertad Aktiv 105 / 108 40% 3 27.08.2027 -
Jens Hjertø-Dahl Hull City Aktiv 127 / 140 40% 1 27.08.2027 -
Pablo Aguiar Lanús Aktiv 109 / 127 40% 1 19.08.2027 -
Matías Gómez Independiente Aktiv 105 / 129 40% 4 17.08.2027 -
Ramiro Soperez Lanús Aktiv 92 / 111 40% 1 17.08.2027 -
Alessandro Romano AS Roma Aktiv 110 / 107 40% 1 17.08.2027 -
Enzo Cardozo Defensa y Justicia Aktiv 116 / 109 40% 1 07.08.2027 -
Archie Whitehall Northampton Town Aktiv 87 / 85 40% 1 28.07.2027 -
Elkin Rivero Atletico Nacional Aktiv 98 / 107 40% 1 27.07.2027 -
Lucas Pyziak Vélez Aktiv 111 / 120 40% 1 22.07.2027 -
Eddy Kouadio Fiorentina Aktiv 107 / 109 40% 2 14.07.2027 -
Joseph Namatane FC Metz Aktiv 100 / 110 40% 3 11.07.2027 -
Emiliano Zambrano Gimnasia y Esgrima Aktiv 101 / 113 40% 1 05.07.2027 -
Ryunosuke Sato Valencia Aktiv 125 / 129 40% 1 05.07.2027 -
Matías Arias Vélez Aktiv 102 / 112 40% 2 02.07.2027 -
Leonel Jaime River Plate Aktiv 104 / 123 40% 2 30.06.2027 -
Gabriele Bertolini Novara Aktiv 99 / 107 40% 1 30.06.2027 -
Alen Korošec ND Gorica Aktiv 94 / 111 40% 1 26.06.2027 -
Kamarni Ryan Pro Vercelli Aktiv 95 / 95 40% 1 20.06.2027 -
Mattia Della Rocca Vicenza Aktiv 86 / 98 40% 1 18.06.2027 -
Borna Knezović Casarano Aktiv 109 / 96 40% 1 17.06.2027 -
Lautaro Millán Independiente Aktiv 116 / 128 40% 1 17.06.2027 -
Maeson King Portsmouth Aktiv 103 / 113 40% 1 13.06.2027 -
Facundo Di Biasi Gimnasia La Plata Aktiv 119 / 112 40% 2 09.06.2027 -
Iwan Henstra Cambuur Aktiv 98 / 103 40% 1 09.06.2027 -
Ignacio Perruzzi San Lorenzo Aktiv 130 / 116 40% 5 28.01.2027 -
Moncef Zekri Sporting CP Aktiv 95 / 109 40% 1 28.01.2027 -
Raffaele Pucino Monopoli Aktiv 116 / 128 72% 1 25.01.2027 Befürworten
James Dornelly Peterborough United Aktiv 102 / 96 40% 2 23.01.2027 -
Jan Ziółkowski Bologna Aktiv 119 / 126 40% 1 20.01.2027 -
Mauricio Amaro Atlanta United FC Aktiv 121 / 112 40% 2 18.01.2027 -
Denys Smetana Metalurh Zaporizhzhia Aktiv 87 / 113 40% 1 18.01.2027 -
Alan Forneris Racing Club Aktiv 105 / 117 40% 1 11.01.2027 -
Kyriani Sabbe Club Brugge Aktiv 121 / 129 40% 1 09.01.2027 -
Vasyl Bundash Metalurh Zaporizhzhia Aktiv 98 / 88 40% 1 01.01.2027 -
Riccardo Brosco Foggia Aktiv 103 / 115 72% 1 17.08.2026 Befürworten
Leonardo Barroso Chicago Fire Aktiv 99 / 126 40% 1 12.08.2026 -
Ezequiel Burdin Defensa y Justicia Aktiv 113 / 102 40% 1 10.08.2026 -
Axel Frugone Defensor Sporting Aktiv 115 / 127 40% 1 08.08.2026 -
Tobías Quiroz Lanús Aktiv 96 / 122 40% 1 06.08.2026 -
Teboho Mokoena Mamelodi Sundowns Aktiv 124 / 137 40% 1 01.08.2026 -
Daichi Kamada Crystal Palace Aktiv 138 / 128 40% 1 01.08.2026 -